Time;durP1;ratioP1;P1;durP2;ratioP2;P2;SDS_P1;SDS_P2;PMS_P1;PMS_P2;Temp;Humidity;BMP_temperature;BMP_pressure;BME280_temperature;BME280_humidity;BME280_pressure;Samples;Min_cycle;Max_cycle;Signal;HPM_P1;HPM_P2
2022/01/04 00:00:26;;;;;;;2.07;1.43;;;;;;;6.22;100.00;99870.78;5021802;28;20320;-55
2022/01/04 00:02:53;;;;;;;5.03;1.77;;;;;;;6.29;100.00;99869.06;5027890;28;20240;-55
2022/01/04 00:05:19;;;;;;;2.93;1.33;;;;;;;6.32;100.00;99871.69;5025023;28;20298;-55
2022/01/04 00:07:45;;;;;;;4.07;1.60;;;;;;;6.29;100.00;99861.25;5027486;28;20264;-56
2022/01/04 00:10:12;;;;;;;5.43;1.70;;;;;;;6.34;100.00;99853.41;5024638;28;20303;-53
2022/01/04 00:15:24;;;;;;;3.47;1.70;;;;;;;6.44;100.00;99855.19;5024538;28;20239;-54
2022/01/04 00:17:51;;;;;;;2.60;1.80;;;;;;;6.44;100.00;99853.44;5028203;28;20301;-56
2022/01/04 00:20:18;;;;;;;4.10;1.53;;;;;;;6.44;100.00;99842.13;5026317;28;20264;-55
2022/01/04 00:22:44;;;;;;;3.63;1.50;;;;;;;6.44;100.00;99839.53;5026062;28;20236;-54
2022/01/04 00:25:10;;;;;;;2.20;1.30;;;;;;;6.46;100.00;99843.03;5020246;28;20695;-55
2022/01/04 00:27:37;;;;;;;3.10;1.90;;;;;;;6.44;100.00;99834.31;5022900;28;20302;-53
2022/01/04 00:30:05;;;;;;;2.90;1.40;;;;;;;6.42;100.00;99836.03;5022433;28;20294;-52
2022/01/04 00:32:32;;;;;;;4.63;1.50;;;;;;;6.41;100.00;99832.56;5021537;28;21068;-53
2022/01/04 00:34:58;;;;;;;3.10;1.13;;;;;;;6.38;100.00;99835.16;5016244;28;20237;-52
2022/01/04 00:37:24;;;;;;;4.20;1.60;;;;;;;6.37;100.00;99837.78;5019373;28;20264;-55
2022/01/04 00:39:51;;;;;;;3.27;1.20;;;;;;;6.37;100.00;99840.41;5021808;28;20306;-55
2022/01/04 00:42:17;;;;;;;4.50;1.70;;;;;;;6.42;100.00;99825.59;5022144;28;20272;-55
2022/01/04 00:44:43;;;;;;;4.27;1.90;;;;;;;6.44;100.00;99819.53;5016099;28;20515;-53
2022/01/04 00:47:11;;;;;;;2.73;1.43;;;;;;;6.40;100.00;99811.72;5020721;28;20233;-54
2022/01/04 00:49:38;;;;;;;2.20;1.10;;;;;;;6.44;100.00;99803.03;5020686;28;20252;-54
2022/01/04 00:52:06;;;;;;;4.83;1.53;;;;;;;6.41;100.00;99801.28;5020310;28;20251;-55
2022/01/04 00:54:34;;;;;;;4.30;1.67;;;;;;;6.49;100.00;99805.63;5024264;28;20228;-54
2022/01/04 00:57:00;;;;;;;2.40;1.37;;;;;;;6.40;100.00;99794.34;5021944;28;20240;-55
2022/01/04 00:59:26;;;;;;;1.13;1.00;;;;;;;6.31;100.00;99790.84;5023216;28;20824;-55
2022/01/04 01:01:53;;;;;;;1.73;1.17;;;;;;;6.24;100.00;99795.19;5018585;28;20256;-55
2022/01/04 01:04:20;;;;;;;3.43;1.63;;;;;;;6.24;100.00;99786.50;5018209;28;20235;-53
2022/01/04 01:06:47;;;;;;;2.53;1.40;;;;;;;6.28;100.00;99790.84;5021950;28;20283;-55
2022/01/04 01:09:13;;;;;;;3.60;1.50;;;;;;;6.34;100.00;99783.03;5022498;28;20248;-54
2022/01/04 01:11:39;;;;;;;2.87;1.20;;;;;;;6.34;100.00;99790.84;5021242;28;20240;-55
2022/01/04 01:14:06;;;;;;;3.50;1.30;;;;;;;6.34;100.00;99780.44;5025698;28;20282;-54
2022/01/04 01:16:33;;;;;;;2.13;1.37;;;;;;;6.36;100.00;99778.69;5022270;28;20236;-53
2022/01/04 01:18:59;;;;;;;1.17;0.97;;;;;;;6.27;100.00;99768.25;5022797;28;20291;-54
2022/01/04 01:21:27;;;;;;;1.50;1.00;;;;;;;6.21;100.00;99764.78;5018695;28;20649;-54
2022/01/04 01:23:54;;;;;;;3.27;1.30;;;;;;;6.27;100.00;99763.03;5015271;28;20279;-54
2022/01/04 01:26:20;;;;;;;2.77;1.57;;;;;;;6.21;100.00;99764.78;5022128;28;20239;-53
2022/01/04 01:28:47;;;;;;;3.70;1.43;;;;;;;6.18;100.00;99751.75;5021221;28;20252;-55
2022/01/04 01:31:13;;;;;;;2.43;1.03;;;;;;;6.18;100.00;99754.34;5021150;28;20258;-54
2022/01/04 01:33:39;;;;;;;1.40;1.20;;;;;;;6.22;100.00;99752.63;5020112;28;20694;-58
2022/01/04 01:36:06;;;;;;;4.00;1.40;;;;;;;6.19;100.00;99756.09;5016872;28;20722;-54
2022/01/04 01:38:33;;;;;;;2.00;1.07;;;;;;;6.26;100.00;99745.69;5021833;28;20232;-55
2022/01/04 01:41:00;;;;;;;3.63;1.80;;;;;;;6.30;100.00;99731.78;5019494;28;20267;-55
2022/01/04 01:43:29;;;;;;;4.67;1.17;;;;;;;6.27;100.00;99737.84;5027545;28;20705;-57
2022/01/04 01:45:56;;;;;;;4.47;1.27;;;;;;;6.33;100.00;99718.75;5014766;28;20235;-53
2022/01/04 01:48:22;;;;;;;1.80;1.70;;;;;;;6.30;100.00;99718.75;5018231;28;20229;-55
2022/01/04 01:50:49;;;;;;;3.40;1.10;;;;;;;6.31;100.00;99718.72;5022315;28;20374;-53
2022/01/04 01:53:15;;;;;;;2.10;1.17;;;;;;;6.33;100.00;99710.91;5022657;28;20257;-52
2022/01/04 01:55:43;;;;;;;4.53;0.90;;;;;;;6.37;100.00;99712.66;5022113;28;20249;-54
2022/01/04 01:58:09;;;;;;;2.17;0.83;;;;;;;6.34;100.00;99710.03;5022062;28;20940;-55
2022/01/04 02:01:32;;;;;;;1.43;0.90;;;;;;;6.29;100.00;99701.38;5019041;28;20233;-54
2022/01/04 02:03:58;;;;;;;2.23;0.87;;;;;;;6.43;100.00;99702.22;5006907;28;20328;-54
2022/01/04 02:06:29;;;;;;;1.30;0.70;;;;;;;6.41;100.00;99693.53;5018919;28;20323;-54
2022/01/04 02:08:55;;;;;;;2.17;1.10;;;;;;;6.43;100.00;99691.81;5024874;28;20263;-52
2022/01/04 02:11:24;;;;;;;1.20;1.00;;;;;;;6.35;100.00;99690.91;5024606;28;20252;-54
2022/01/04 02:13:51;;;;;;;1.53;1.07;;;;;;;6.33;100.00;99679.63;5029771;28;20220;-57
2022/01/04 02:16:18;;;;;;;2.70;1.13;;;;;;;6.40;100.00;99671.81;5023977;28;20311;-53
2022/01/04 02:18:44;;;;;;;5.90;1.33;;;;;;;6.34;100.00;99673.53;5022920;28;20331;-54
2022/01/04 02:21:12;;;;;;;2.37;1.10;;;;;;;6.36;100.00;99664.88;5026697;28;20737;-55
2022/01/04 02:23:38;;;;;;;4.90;1.07;;;;;;;6.39;100.00;99658.78;5024439;28;20255;-55
2022/01/04 02:26:04;;;;;;;0.80;0.80;;;;;;;6.43;100.00;99650.09;5022922;28;20252;-54
2022/01/04 02:28:31;;;;;;;2.33;1.30;;;;;;;6.41;100.00;99652.69;5024896;28;20233;-54
2022/01/04 02:30:57;;;;;;;1.80;1.47;;;;;;;6.44;100.00;99646.59;5029910;28;20276;-55
2022/01/04 02:33:24;;;;;;;1.03;0.97;;;;;;;6.40;100.00;99639.66;5023245;28;20310;-55
2022/01/04 02:35:50;;;;;;;2.23;1.13;;;;;;;6.34;100.00;99634.44;5024672;28;20228;-55
2022/01/04 02:38:18;;;;;;;5.50;1.23;;;;;;;6.27;100.00;99632.72;5023772;28;20236;-55
2022/01/04 02:40:44;;;;;;;2.00;0.67;;;;;;;6.39;100.00;99627.50;5024449;28;20252;-56
2022/01/04 02:43:11;;;;;;;2.83;0.83;;;;;;;6.37;100.00;99621.41;5024126;28;20240;-55
2022/01/04 02:45:37;;;;;;;2.53;1.10;;;;;;;6.46;100.00;99618.78;5025214;28;20256;-55
2022/01/04 02:48:04;;;;;;;1.83;1.00;;;;;;;6.39;100.00;99622.28;5023106;28;20244;-55
2022/01/04 02:50:30;;;;;;;4.00;1.13;;;;;;;6.30;100.00;99617.09;5022291;28;20278;-55
2022/01/04 02:52:57;;;;;;;0.93;0.70;;;;;;;6.35;100.00;99610.09;5023674;28;20233;-52
2022/01/04 02:55:25;;;;;;;4.03;1.13;;;;;;;6.37;100.00;99614.44;5017291;28;20252;-55
2022/01/04 02:57:51;;;;;;;5.83;1.40;;;;;;;6.33;100.00;99611.88;5024187;28;20338;-55
2022/01/04 03:00:18;;;;;;;1.13;0.87;;;;;;;6.32;100.00;99615.31;5023600;28;20259;-54
2022/01/04 03:02:45;;;;;;;1.10;0.83;;;;;;;6.24;100.00;99606.66;5026606;28;20251;-52
2022/01/04 03:05:12;;;;;;;1.73;1.00;;;;;;;6.19;100.00;99599.72;5023705;28;20244;-53
2022/01/04 03:07:39;;;;;;;1.10;1.00;;;;;;;6.36;100.00;99611.88;5022743;28;20294;-54
2022/01/04 03:10:07;;;;;;;0.87;0.87;;;;;;;6.38;100.00;99610.09;5021719;28;20282;-53
2022/01/04 03:12:35;;;;;;;1.80;0.90;;;;;;;6.35;100.00;99611.00;5024241;28;20239;-54
2022/01/04 03:15:02;;;;;;;1.43;1.10;;;;;;;6.37;100.00;99606.63;5024162;28;20232;-55
2022/01/04 03:17:28;;;;;;;3.60;0.97;;;;;;;6.31;100.00;99603.16;5022422;28;20770;-54
2022/01/04 03:19:55;;;;;;;0.70;0.70;;;;;;;6.25;100.00;99597.97;5025942;28;20236;-55
2022/01/04 03:22:21;;;;;;;1.37;0.93;;;;;;;6.36;100.00;99596.22;5024157;28;20286;-54
2022/01/04 03:24:47;;;;;;;2.30;1.10;;;;;;;6.39;100.00;99585.78;5022082;28;20757;-53
2022/01/04 03:27:14;;;;;;;3.27;1.00;;;;;;;6.36;100.00;99581.44;5020832;28;20268;-56
2022/01/04 03:29:41;;;;;;;1.40;0.80;;;;;;;6.40;100.00;99577.09;5024392;28;20259;-52
2022/01/04 03:32:09;;;;;;;0.70;0.60;;;;;;;6.37;100.00;99567.53;5024195;28;20314;-56
2022/01/04 03:34:35;;;;;;;2.33;0.90;;;;;;;6.29;100.00;99563.22;5024438;28;20365;-52
2022/01/04 03:37:01;;;;;;;2.97;1.10;;;;;;;6.28;100.00;99570.16;5020540;28;20256;-56
2022/01/04 03:39:28;;;;;;;1.90;0.70;;;;;;;6.25;100.00;99566.69;5023733;28;20933;-54
2022/01/04 03:41:54;;;;;;;1.27;1.00;;;;;;;6.30;100.00;99564.94;5022025;28;20232;-53
2022/01/04 03:44:20;;;;;;;4.43;1.87;;;;;;;6.37;100.00;99566.66;5023624;28;20244;-54
2022/01/04 03:46:49;;;;;;;0.70;0.60;;;;;;;6.31;100.00;99551.91;5022618;28;20260;-53
2022/01/04 03:49:16;;;;;;;1.50;0.80;;;;;;;6.40;100.00;99548.41;5020998;28;20260;-53
2022/01/04 03:51:42;;;;;;;2.33;1.07;;;;;;;6.34;100.00;99545.81;5024085;28;20260;-55
2022/01/04 03:54:09;;;;;;;2.03;1.53;;;;;;;6.26;100.00;99539.78;5024353;28;20228;-56
2022/01/04 03:56:35;;;;;;;1.37;1.17;;;;;;;6.20;100.00;99538.91;5021364;28;20260;-54
2022/01/04 03:59:01;;;;;;;1.30;0.87;;;;;;;6.24;100.00;99533.69;5022333;28;20743;-53
2022/01/04 04:01:28;;;;;;;1.80;1.00;;;;;;;6.25;100.00;99538.00;5024001;28;20232;-54
2022/01/04 04:03:56;;;;;;;2.50;1.00;;;;;;;6.25;100.00;99530.19;5014868;28;20256;-54
2022/01/04 04:06:22;;;;;;;1.10;0.87;;;;;;;6.19;100.00;99537.16;5017727;28;20252;-54
2022/01/04 04:08:49;;;;;;;0.87;0.87;;;;;;;6.33;100.00;99518.03;5024337;28;20272;-53
2022/01/04 04:11:15;;;;;;;1.23;1.00;;;;;;;6.27;100.00;99518.91;5022925;28;20232;-53
2022/01/04 04:13:42;;;;;;;1.93;1.27;;;;;;;6.17;100.00;99507.63;5027923;28;20256;-55
2022/01/04 04:16:08;;;;;;;3.77;1.20;;;;;;;6.13;100.00;99505.91;5022498;28;20263;-55
2022/01/04 04:18:34;;;;;;;2.93;1.03;;;;;;;6.16;100.00;99511.13;5022903;28;20224;-54
2022/01/04 04:21:02;;;;;;;1.67;1.00;;;;;;;6.14;100.00;99509.38;5026321;28;20802;-53
2022/01/04 04:23:29;;;;;;;1.93;0.90;;;;;;;6.13;100.00;99510.25;5024089;28;21432;-52
2022/01/04 04:25:55;;;;;;;2.33;1.20;;;;;;;6.06;100.00;99506.78;5022950;28;20225;-53
2022/01/04 04:28:22;;;;;;;2.67;1.40;;;;;;;6.13;100.00;99507.66;5020506;28;20636;-54
2022/01/04 04:30:48;;;;;;;2.20;1.13;;;;;;;6.15;100.00;99509.41;5024402;28;20232;-54
2022/01/04 04:33:14;;;;;;;1.57;1.20;;;;;;;6.11;100.00;99502.47;5025682;28;20252;-56
2022/01/04 04:35:41;;;;;;;1.70;1.07;;;;;;;6.13;100.00;99495.47;5024878;28;20224;-55
2022/01/04 04:38:08;;;;;;;2.47;1.10;;;;;;;6.13;100.00;99492.88;5023026;28;20259;-56
2022/01/04 04:40:35;;;;;;;1.50;1.30;;;;;;;6.11;100.00;99491.19;5030421;28;20278;-54
2022/01/04 04:43:02;;;;;;;2.90;1.20;;;;;;;6.13;100.00;99492.03;5030744;28;20256;-54
2022/01/04 04:45:29;;;;;;;2.40;0.80;;;;;;;6.09;100.00;99488.56;5027057;28;20663;-53
2022/01/04 04:47:55;;;;;;;2.67;1.00;;;;;;;6.08;100.00;99492.03;5014484;28;20263;-54
2022/01/04 04:50:21;;;;;;;1.30;1.20;;;;;;;6.12;100.00;99488.56;5023662;28;20255;-54
2022/01/04 04:52:48;;;;;;;2.60;1.27;;;;;;;6.05;100.00;99486.84;5018248;28;20286;-55
2022/01/04 04:55:15;;;;;;;1.70;1.47;;;;;;;6.03;100.00;99480.75;5023815;28;20279;-58
2022/01/04 04:57:42;;;;;;;1.63;1.33;;;;;;;5.97;100.00;99472.97;5024651;28;20311;-53
2022/01/04 05:00:09;;;;;;;2.60;1.40;;;;;;;6.02;100.00;99468.59;5024610;28;20232;-55
2022/01/04 05:02:36;;;;;;;2.10;1.47;;;;;;;6.06;100.00;99457.28;5012293;28;20282;-54
2022/01/04 05:05:03;;;;;;;2.00;1.10;;;;;;;6.02;100.00;99459.94;5020393;28;20267;-54
2022/01/04 05:07:29;;;;;;;1.77;1.07;;;;;;;5.98;100.00;99456.47;5023894;28;20247;-54
2022/01/04 05:09:56;;;;;;;1.23;0.90;;;;;;;5.98;100.00;99452.13;5022880;28;20671;-54
2022/01/04 05:12:23;;;;;;;2.10;1.30;;;;;;;5.98;100.00;99449.50;5026420;28;20608;-54
2022/01/04 05:14:50;;;;;;;1.77;1.27;;;;;;;6.01;100.00;99451.25;5028393;28;20232;-53
2022/01/04 05:17:16;;;;;;;2.27;1.30;;;;;;;6.05;100.00;99444.28;5021969;28;20306;-54
2022/01/04 05:19:42;;;;;;;1.70;1.60;;;;;;;6.01;100.00;99443.44;5022489;28;20309;-54
2022/01/04 05:22:09;;;;;;;2.00;1.60;;;;;;;5.96;100.00;99429.53;5023667;28;20243;-54
2022/01/04 05:24:35;;;;;;;1.73;1.30;;;;;;;6.01;100.00;99422.59;5023231;28;20581;-56
2022/01/04 05:27:01;;;;;;;2.90;1.70;;;;;;;5.96;100.00;99419.13;5022142;28;20330;-54
2022/01/04 05:29:29;;;;;;;1.70;1.60;;;;;;;5.98;100.00;99426.06;5022971;28;20602;-53
2022/01/04 05:31:55;;;;;;;2.33;1.83;;;;;;;5.98;100.00;99433.00;5022777;28;20295;-54
2022/01/04 05:34:22;;;;;;;2.37;1.47;;;;;;;5.99;100.00;99424.31;5021342;28;20294;-54
2022/01/04 05:36:48;;;;;;;1.97;1.53;;;;;;;6.05;100.00;99419.09;5022575;28;20264;-52
2022/01/04 05:39:14;;;;;;;2.97;1.73;;;;;;;6.04;100.00;99417.38;5022246;28;20283;-55
2022/01/04 05:41:41;;;;;;;1.63;1.43;;;;;;;5.99;100.00;99413.91;5028000;28;20228;-55
2022/01/04 05:44:07;;;;;;;4.33;1.60;;;;;;;6.09;100.00;99405.19;5026733;28;20244;-55
2022/01/04 05:46:35;;;;;;;3.13;1.60;;;;;;;6.04;100.00;99403.44;5025323;28;20275;-54
2022/01/04 05:49:01;;;;;;;4.30;1.73;;;;;;;6.06;100.00;99404.31;5021898;28;20709;-55
2022/01/04 05:51:27;;;;;;;3.60;1.70;;;;;;;6.06;100.00;99397.38;5022509;28;20725;-56
2022/01/04 05:53:54;;;;;;;5.17;1.80;;;;;;;6.06;100.00;99392.16;5023735;28;20252;-55
2022/01/04 05:56:20;;;;;;;4.77;1.73;;;;;;;6.09;100.00;99394.75;5024021;28;20714;-55
2022/01/04 05:58:47;;;;;;;1.70;1.57;;;;;;;6.13;100.00;99386.03;5027070;28;20374;-56
2022/01/04 06:01:13;;;;;;;5.00;2.37;;;;;;;6.09;100.00;99392.16;5030248;28;20302;-55
2022/01/04 06:03:41;;;;;;;2.53;1.50;;;;;;;6.05;100.00;99385.22;5026170;28;20240;-56
2022/01/04 06:06:07;;;;;;;3.30;1.80;;;;;;;6.00;100.00;99368.72;5025968;28;20314;-56
2022/01/04 06:08:36;;;;;;;2.80;1.50;;;;;;;6.07;100.00;99352.22;5026872;28;20770;-55
2022/01/04 06:11:02;;;;;;;3.93;2.43;;;;;;;6.05;100.00;99351.34;5027891;28;20228;-54
2022/01/04 06:16:13;;;;;;;4.63;2.20;;;;;;;6.09;100.00;99339.19;5031575;28;20259;-53
2022/01/04 06:18:42;;;;;;;1.80;1.70;;;;;;;6.07;100.00;99336.59;5026558;28;20710;-55
2022/01/04 06:21:10;;;;;;;3.53;2.03;;;;;;;6.05;100.00;99338.31;5027784;28;20236;-53
2022/01/04 06:23:37;;;;;;;3.93;1.80;;;;;;;6.05;100.00;99340.94;5025834;28;20235;-57
2022/01/04 06:26:03;;;;;;;5.40;1.97;;;;;;;6.14;100.00;99340.91;5025758;28;20248;-56
2022/01/04 06:28:29;;;;;;;2.37;2.00;;;;;;;6.04;100.00;99328.78;5025309;28;21054;-55
2022/01/04 06:30:56;;;;;;;2.87;1.90;;;;;;;6.08;100.00;99324.44;5024567;28;20748;-54
2022/01/04 06:33:23;;;;;;;2.13;1.93;;;;;;;6.08;100.00;99322.69;5025411;28;20272;-54
2022/01/04 06:35:51;;;;;;;2.20;1.90;;;;;;;6.12;100.00;99326.13;5025242;28;20228;-54
2022/01/04 06:38:17;;;;;;;2.23;2.03;;;;;;;6.11;100.00;99325.28;5025835;28;20244;-53
2022/01/04 06:40:44;;;;;;;3.57;2.20;;;;;;;6.15;100.00;99319.16;5025739;28;20228;-54
2022/01/04 06:43:10;;;;;;;4.13;2.10;;;;;;;6.15;100.00;99315.69;5032937;28;20662;-56
2022/01/04 06:45:36;;;;;;;3.00;2.07;;;;;;;6.13;100.00;99309.63;5026552;28;20749;-54
2022/01/04 06:48:04;;;;;;;3.53;2.67;;;;;;;6.17;100.00;99309.59;5025456;28;20320;-56
2022/01/04 06:50:30;;;;;;;4.27;3.53;;;;;;;6.23;100.00;99303.47;5026491;28;20245;-55
2022/01/04 06:52:58;;;;;;;6.10;3.10;;;;;;;6.22;100.00;99292.19;5025979;28;20240;-55
2022/01/04 06:55:24;;;;;;;7.53;3.43;;;;;;;6.18;100.00;99298.31;5024770;28;20290;-55
2022/01/04 06:57:51;;;;;;;6.53;3.37;;;;;;;6.17;100.00;99300.91;5024858;28;20345;-54
2022/01/04 07:00:17;;;;;;;4.73;3.37;;;;;;;6.15;100.00;99292.25;5022972;28;20252;-55
2022/01/04 07:02:44;;;;;;;5.40;3.40;;;;;;;6.22;100.00;99294.78;5022098;28;20232;-54
2022/01/04 07:05:10;;;;;;;7.93;3.83;;;;;;;6.20;100.00;99306.97;5025041;28;20229;-55
2022/01/04 07:07:36;;;;;;;7.53;4.30;;;;;;;6.20;100.00;99304.34;5020633;28;20276;-54
2022/01/04 07:10:05;;;;;;;5.80;3.87;;;;;;;6.25;100.00;99300.84;5022829;28;20283;-58
2022/01/04 07:12:31;;;;;;;4.90;4.07;;;;;;;6.29;100.00;99302.59;5027883;28;20297;-55
2022/01/04 07:14:58;;;;;;;5.27;3.90;;;;;;;6.26;100.00;99297.38;5025109;28;20286;-54
2022/01/04 07:17:24;;;;;;;8.77;4.93;;;;;;;6.24;100.00;99293.91;5024462;28;20237;-54
2022/01/04 07:19:50;;;;;;;8.00;3.90;;;;;;;6.30;100.00;99294.75;5026851;28;20929;-56
2022/01/04 07:22:17;;;;;;;4.20;3.60;;;;;;;6.27;100.00;99305.19;5014839;28;20312;-56
2022/01/04 07:24:43;;;;;;;5.57;4.37;;;;;;;6.35;100.00;99310.34;5024992;28;20241;-55
2022/01/04 07:27:11;;;;;;;6.57;4.50;;;;;;;6.41;100.00;99307.69;5026174;28;20268;-54
2022/01/04 07:29:37;;;;;;;7.23;4.57;;;;;;;6.36;100.00;99304.28;5024074;28;20298;-55
2022/01/04 07:32:04;;;;;;;5.37;3.70;;;;;;;6.43;100.00;99303.34;5026847;28;20228;-53
2022/01/04 07:34:30;;;;;;;4.23;3.47;;;;;;;6.48;100.00;99301.56;5025690;28;20244;-53
2022/01/04 07:36:57;;;;;;;5.10;3.20;;;;;;;6.44;100.00;99292.03;5029493;28;20236;-54
2022/01/04 07:39:23;;;;;;;5.63;4.00;;;;;;;6.44;100.00;99284.22;5026138;28;20244;-55
2022/01/04 07:41:49;;;;;;;6.13;3.87;;;;;;;6.51;100.00;99283.28;5034918;28;20279;-54
2022/01/04 07:44:17;;;;;;;5.10;3.83;;;;;;;6.48;100.00;99277.25;5022319;28;20261;-55
2022/01/04 07:46:43;;;;;;;3.40;3.10;;;;;;;6.49;100.00;99282.41;5025844;28;20707;-54
2022/01/04 07:49:09;;;;;;;4.47;3.77;;;;;;;6.48;100.00;99283.31;5025873;28;20260;-55
2022/01/04 07:51:36;;;;;;;6.87;3.53;;;;;;;6.60;100.00;99279.72;5014870;28;20229;-55
2022/01/04 07:54:02;;;;;;;5.27;3.03;;;;;;;6.60;100.00;99288.44;5025116;28;20237;-53
2022/01/04 07:56:29;;;;;;;5.17;3.40;;;;;;;6.63;100.00;99293.63;5023098;28;20240;-54
2022/01/04 07:59:00;;;;;;;8.57;3.40;;;;;;;6.67;100.00;99273.63;5027835;28;20228;-54
2022/01/04 08:01:28;;;;;;;5.97;3.40;;;;;;;6.63;100.00;99258.84;5026716;28;20303;-55
2022/01/04 08:03:54;;;;;;;5.60;3.43;;;;;;;6.59;100.00;99273.66;5025200;28;20859;-55
2022/01/04 08:06:21;;;;;;;4.27;3.40;;;;;;;6.59;100.00;99255.41;5027115;28;20240;-55
2022/01/04 08:08:47;;;;;;;4.23;3.80;;;;;;;6.60;100.00;99246.72;5028449;28;20306;-54
2022/01/04 08:11:13;;;;;;;4.40;3.33;;;;;;;6.64;100.00;99245.81;5025406;28;20228;-52
2022/01/04 08:13:40;;;;;;;8.53;3.53;;;;;;;6.67;100.00;99250.13;5030962;28;20236;-56
2022/01/04 08:16:06;;;;;;;4.80;2.73;;;;;;;6.68;100.00;99247.50;5026278;28;20259;-55
2022/01/04 08:18:34;;;;;;;2.80;2.27;;;;;;;6.75;100.00;99240.50;5023607;28;20263;-56
2022/01/04 08:21:03;;;;;;;3.67;2.70;;;;;;;6.86;100.00;99243.00;5020623;28;20298;-56
2022/01/04 08:23:30;;;;;;;3.17;2.50;;;;;;;6.80;100.00;99235.22;5023759;28;20241;-55
2022/01/04 08:25:57;;;;;;;4.87;2.90;;;;;;;6.82;100.00;99236.09;5022083;28;20252;-56
2022/01/04 08:28:23;;;;;;;3.10;2.60;;;;;;;6.77;100.00;99233.50;5018927;28;20721;-55
2022/01/04 08:30:51;;;;;;;3.20;2.27;;;;;;;6.79;100.00;99238.72;5022793;28;20248;-55
2022/01/04 08:33:17;;;;;;;3.60;2.53;;;;;;;6.74;100.00;99232.66;5022877;28;20299;-57
2022/01/04 08:35:45;;;;;;;3.37;2.43;;;;;;;6.79;100.00;99236.97;5021895;28;20239;-56
2022/01/04 08:38:11;;;;;;;2.50;2.10;;;;;;;6.83;100.00;99229.97;5020312;28;20302;-56
2022/01/04 08:40:38;;;;;;;2.30;2.07;;;;;;;6.84;100.00;99231.69;5026299;28;20236;-55
2022/01/04 08:43:04;;;;;;;3.57;2.40;;;;;;;6.86;100.00;99224.72;5022195;28;20240;-56
2022/01/04 08:45:31;;;;;;;3.13;2.33;;;;;;;6.84;100.00;99223.88;5022317;28;20736;-56
2022/01/04 08:47:58;;;;;;;2.30;2.10;;;;;;;6.86;100.00;99227.34;5021915;28;20236;-56
2022/01/04 08:50:27;;;;;;;4.63;3.83;;;;;;;6.83;100.00;99222.16;5023757;28;20232;-56
2022/01/04 08:52:56;;;;;;;4.73;4.03;;;;;;;6.87;100.00;99229.06;5018568;28;20221;-56
2022/01/04 08:55:22;;;;;;;3.03;2.50;;;;;;;6.87;100.00;99227.31;5022787;28;20323;-56
2022/01/04 08:57:48;;;;;;;2.60;2.40;;;;;;;7.00;100.00;99217.63;5022812;28;20263;-56
2022/01/04 09:00:16;;;;;;;2.37;2.03;;;;;;;6.93;100.00;99218.56;5018577;28;20248;-53
2022/01/04 09:02:43;;;;;;;3.27;2.30;;;;;;;6.94;100.00;99215.06;5022468;28;20224;-55
2022/01/04 09:05:10;;;;;;;2.10;1.90;;;;;;;6.93;100.00;99206.38;5023423;28;20232;-55
2022/01/04 09:07:36;;;;;;;1.90;1.80;;;;;;;6.96;100.00;99202.03;5020169;28;20260;-55
2022/01/04 09:10:06;;;;;;;1.63;1.53;;;;;;;6.97;100.00;99196.78;5017011;28;20232;-55
2022/01/04 09:12:42;;;;;;;3.60;1.50;;;;;;;7.06;100.00;99196.69;5022475;28;20417;-56
2022/01/04 09:15:29;;;;;;;2.43;2.23;;;;;;;6.96;100.00;99197.66;5018311;28;20232;-55
2022/01/04 09:20:41;;;;;;;5.70;2.10;;;;;;;7.01;100.00;99195.00;5024384;28;20239;-57
2022/01/04 09:23:07;;;;;;;3.57;2.90;;;;;;;6.96;100.00;99197.66;5020237;28;20808;-54
2022/01/04 09:25:35;;;;;;;3.23;1.77;;;;;;;7.02;100.00;99201.94;5024778;28;20732;-56
2022/01/04 09:28:01;;;;;;;2.30;2.03;;;;;;;6.98;100.00;99189.81;5025107;28;20240;-55
2022/01/04 09:30:28;;;;;;;3.30;2.10;;;;;;;6.96;100.00;99186.38;5025745;28;20282;-56
2022/01/04 09:32:54;;;;;;;2.03;1.80;;;;;;;6.89;100.00;99182.97;5021678;28;20870;-54
2022/01/04 09:35:20;;;;;;;2.33;2.13;;;;;;;6.86;100.00;99189.06;5023685;28;20256;-55
2022/01/04 09:37:47;;;;;;;5.43;2.60;;;;;;;6.81;100.00;99188.28;5025444;28;20244;-55
2022/01/04 09:40:13;;;;;;;4.03;2.13;;;;;;;6.63;100.00;99183.22;5026755;28;20232;-55
2022/01/04 09:42:42;;;;;;;2.80;2.23;;;;;;;6.47;100.00;99179.91;5022197;28;20228;-54
2022/01/04 09:45:10;;;;;;;4.30;2.60;;;;;;;6.47;100.00;99177.31;5024798;28;20236;-55
2022/01/04 09:47:36;;;;;;;5.47;2.67;;;;;;;6.43;100.00;99173.88;5025187;28;20248;-56
2022/01/04 09:50:08;;;;;;;5.50;3.10;;;;;;;6.42;100.00;99173.88;5024887;28;20255;-57
2022/01/04 09:52:35;;;;;;;2.77;1.90;;;;;;;6.26;100.00;99167.09;5024184;28;20236;-56
2022/01/04 09:55:02;;;;;;;2.60;2.40;;;;;;;6.22;100.00;99161.91;5025716;28;20260;-57
2022/01/04 09:57:28;;;;;;;5.87;2.33;;;;;;;6.10;100.00;99158.50;5023003;28;20385;-57
2022/01/04 09:59:56;;;;;;;4.97;3.10;;;;;;;6.09;100.00;99155.06;5024737;28;20224;-57
2022/01/04 10:02:24;;;;;;;2.80;2.50;;;;;;;6.05;100.00;99142.06;5024334;28;20248;-58
2022/01/04 10:04:51;;;;;;;3.90;2.87;;;;;;;6.00;100.00;99147.31;5025252;28;20255;-57
2022/01/04 10:07:21;;;;;;;3.70;3.00;;;;;;;5.97;100.00;99139.53;5024739;28;20303;-57
2022/01/04 10:09:52;;;;;;;6.50;3.83;;;;;;;5.98;100.00;99125.63;5018249;28;20253;-56
2022/01/04 10:12:21;;;;;;;2.77;2.53;;;;;;;6.01;100.00;99120.41;5023270;28;21155;-58
2022/01/04 10:14:48;;;;;;;2.83;2.63;;;;;;;5.94;100.00;99111.75;5019467;28;20260;-57
2022/01/04 10:17:18;;;;;;;2.73;2.53;;;;;;;6.02;100.00;99110.84;5019611;28;20328;-56
2022/01/04 10:19:46;;;;;;;4.20;3.63;;;;;;;5.99;100.00;99103.91;5027135;28;20244;-57
2022/01/04 10:22:23;;;;;;;3.77;3.17;;;;;;;5.92;100.00;99105.69;5025950;28;20575;-54
2022/01/04 10:24:51;;;;;;;3.63;3.30;;;;;;;5.86;100.00;99094.44;5025505;28;20228;-56
2022/01/04 10:27:32;;;;;;;5.03;3.90;;;;;;;5.93;100.00;99098.75;5026980;28;20254;-56
2022/01/04 10:30:21;;;;;;;3.30;3.00;;;;;;;5.93;100.00;99101.34;5017161;28;20232;-56
2022/01/04 10:32:51;;;;;;;4.33;3.40;;;;;;;5.90;100.00;99097.00;5028725;28;20234;-56
2022/01/04 10:35:26;;;;;;;3.30;3.00;;;;;;;5.86;100.00;99097.91;5024863;28;20303;-57
2022/01/04 10:37:52;;;;;;;3.87;3.03;;;;;;;5.87;100.00;99085.75;5025315;28;20842;-56
2022/01/04 10:40:20;;;;;;;5.87;3.83;;;;;;;5.94;100.00;99077.03;5024372;28;20858;-56
2022/01/04 10:42:46;;;;;;;6.13;5.20;;;;;;;5.90;100.00;99081.38;5024759;28;20275;-57
2022/01/04 10:45:27;;;;;;;2.83;2.63;;;;;;;5.97;100.00;99079.63;5018878;28;20330;-57
2022/01/04 10:47:57;;;;;;;5.27;3.07;;;;;;;6.02;100.00;99083.03;5014124;28;20232;-56
2022/01/04 10:50:34;;;;;;;7.83;4.23;;;;;;;6.02;100.00;99076.97;5018635;28;20332;-57
2022/01/04 10:53:01;;;;;;;6.57;3.17;;;;;;;6.07;100.00;99089.09;5021878;28;20320;-55
2022/01/04 10:55:31;;;;;;;8.00;2.37;;;;;;;6.03;100.00;99087.38;5017660;28;20287;-57
2022/01/04 10:57:58;;;;;;;4.57;2.73;;;;;;;5.94;100.00;99083.13;5016088;28;20261;-55
2022/01/04 11:00:25;;;;;;;4.00;2.30;;;;;;;5.98;100.00;99073.53;5020222;28;20279;-55
2022/01/04 11:02:53;;;;;;;3.10;2.53;;;;;;;6.00;100.00;99079.56;5023843;28;20240;-55
2022/01/04 11:05:22;;;;;;;2.70;2.50;;;;;;;6.04;100.00;99072.59;5019954;28;20260;-54
2022/01/04 11:07:59;;;;;;;5.43;2.47;;;;;;;6.03;100.00;99076.94;5018573;28;20682;-60
2022/01/04 11:10:27;;;;;;;2.63;2.43;;;;;;;6.01;100.00;99077.84;5022445;28;20259;-54
2022/01/04 11:12:54;;;;;;;5.83;3.00;;;;;;;5.97;100.00;99067.47;5029098;28;20643;-55
2022/01/04 11:15:21;;;;;;;4.27;2.87;;;;;;;5.96;100.00;99070.06;5018551;28;20271;-58
2022/01/04 11:17:47;;;;;;;3.27;2.87;;;;;;;6.00;100.00;99076.09;5022241;28;20260;-57
2022/01/04 11:20:14;;;;;;;2.90;2.60;;;;;;;5.96;100.00;99072.66;5025068;28;20286;-59
2022/01/04 11:22:46;;;;;;;6.17;2.93;;;;;;;5.96;100.00;99070.06;5023872;28;20228;-57
2022/01/04 11:25:15;;;;;;;2.97;2.30;;;;;;;5.95;100.00;99063.13;5024916;28;20256;-58
2022/01/04 11:27:41;;;;;;;3.47;3.10;;;;;;;5.88;100.00;99061.44;5018063;28;20657;-60
2022/01/04 11:30:13;;;;;;;3.63;3.03;;;;;;;5.90;100.00;99057.09;5017545;28;20255;-60
2022/01/04 11:32:42;;;;;;;5.10;2.97;;;;;;;5.86;100.00;99040.63;5025024;28;20245;-57
2022/01/04 11:35:12;;;;;;;4.57;2.83;;;;;;;5.85;100.00;99032.81;5029151;28;20386;-59
2022/01/04 11:37:41;;;;;;;6.93;3.47;;;;;;;5.80;100.00;99016.38;5023947;28;20233;-57
2022/01/04 11:40:25;;;;;;;3.37;3.07;;;;;;;5.84;100.00;99007.66;5023058;28;20259;-58
2022/01/04 11:42:52;;;;;;;3.83;2.90;;;;;;;5.83;100.00;99011.16;5022503;28;20228;-58